Time;durP1;ratioP1;P1;durP2;ratioP2;P2;SDS_P1;SDS_P2;PMS_P1;PMS_P2;Temp;Humidity;BMP_temperature;BMP_pressure;BME280_temperature;BME280_humidity;BME280_pressure;Samples;Min_cycle;Max_cycle;Signal;HPM_P1;HPM_P2
2023/03/12 00:01:11;;;;;;;3.00;1.33;;;;;;;;;;6232815;28;20214;-53
2023/03/12 00:04:12;;;;;;;2.60;1.60;;;;;;;;;;6244257;28;20190;-56
2023/03/12 00:07:13;;;;;;;2.43;1.63;;;;;;;;;;6249367;28;20193;-55
2023/03/12 00:10:14;;;;;;;1.50;1.30;;;;;;;;;;6226796;28;20273;-51
2023/03/12 00:13:15;;;;;;;1.50;1.40;;;;;;;;;;6230289;28;20218;-53
2023/03/12 00:16:16;;;;;;;2.93;1.30;;;;;;;;;;6231040;28;20269;-56
2023/03/12 00:19:17;;;;;;;1.57;1.20;;;;;;;;;;6220651;28;20214;-56
2023/03/12 00:22:21;;;;;;;2.40;1.63;;;;;;;;;;6212055;28;20194;-52
2023/03/12 00:25:22;;;;;;;2.57;1.43;;;;;;;;;;6227545;28;20210;-55
2023/03/12 00:28:23;;;;;;;2.90;1.70;;;;;;;;;;6233203;28;20204;-54
2023/03/12 00:31:26;;;;;;;2.50;1.60;;;;;;;;;;6248574;28;20194;-54
2023/03/12 00:34:27;;;;;;;2.43;1.93;;;;;;;;;;6249087;28;20210;-51
2023/03/12 00:37:31;;;;;;;3.17;2.03;;;;;;;;;;6244641;28;20223;-54
2023/03/12 00:40:32;;;;;;;3.43;2.37;;;;;;;;;;6223579;28;20263;-56
2023/03/12 00:43:34;;;;;;;3.07;2.00;;;;;;;;;;6248117;28;20224;-51
2023/03/12 00:46:35;;;;;;;3.47;2.10;;;;;;;;;;6248683;28;20183;-57
2023/03/12 00:49:36;;;;;;;2.93;2.20;;;;;;;;;;6241168;28;20197;-57
2023/03/12 00:52:37;;;;;;;2.37;1.70;;;;;;;;;;6240838;28;20242;-56
2023/03/12 00:55:38;;;;;;;2.47;1.73;;;;;;;;;;6251607;28;20195;-56
2023/03/12 00:58:41;;;;;;;2.00;1.80;;;;;;;;;;6225641;28;20244;-55
2023/03/12 01:01:42;;;;;;;2.17;1.73;;;;;;;;;;6223448;28;20233;-55
2023/03/12 01:04:43;;;;;;;2.57;1.73;;;;;;;;;;6230900;28;20186;-56
2023/03/12 01:07:44;;;;;;;2.40;1.90;;;;;;;;;;6232616;28;20189;-56
2023/03/12 01:10:46;;;;;;;2.53;1.90;;;;;;;;;;6231913;28;20194;-54
2023/03/12 01:13:47;;;;;;;2.10;1.90;;;;;;;;;;6221279;28;20226;-54
2023/03/12 01:16:48;;;;;;;3.33;2.00;;;;;;;;;;6225880;28;20240;-55
2023/03/12 01:19:49;;;;;;;4.43;2.27;;;;;;;;;;6216810;28;20311;-51
2023/03/12 01:22:50;;;;;;;3.57;1.90;;;;;;;;;;6219359;28;20209;-56
2023/03/12 01:25:54;;;;;;;3.13;2.23;;;;;;;;;;6213711;28;20190;-56
2023/03/12 01:28:55;;;;;;;3.40;1.90;;;;;;;;;;6222378;28;20289;-55
2023/03/12 01:31:56;;;;;;;3.77;2.00;;;;;;;;;;6231663;28;20228;-56
2023/03/12 01:34:57;;;;;;;3.80;2.20;;;;;;;;;;6246475;28;20301;-53
2023/03/12 01:37:58;;;;;;;2.30;1.70;;;;;;;;;;6220959;28;20206;-56
2023/03/12 01:40:59;;;;;;;2.33;1.80;;;;;;;;;;6246249;28;20222;-57
2023/03/12 01:44:02;;;;;;;2.80;1.90;;;;;;;;;;6229942;28;20190;-55
2023/03/12 01:47:03;;;;;;;3.10;1.90;;;;;;;;;;6242165;28;20184;-52
2023/03/12 01:50:05;;;;;;;2.40;1.90;;;;;;;;;;6215594;28;20197;-52
2023/03/12 01:53:06;;;;;;;2.30;2.10;;;;;;;;;;6232633;28;20194;-54
2023/03/12 01:56:08;;;;;;;2.30;2.03;;;;;;;;;;6248250;28;20217;-54
2023/03/12 01:59:12;;;;;;;2.83;2.07;;;;;;;;;;6247797;28;20190;-55
2023/03/12 02:02:14;;;;;;;2.70;1.80;;;;;;;;;;6247912;28;20278;-57
2023/03/12 02:05:37;;;;;;;3.40;1.97;;;;;;;;;;6246550;28;20194;-55
2023/03/12 02:08:40;;;;;;;2.57;2.30;;;;;;;;;;6208585;28;20192;-54
2023/03/12 02:11:41;;;;;;;4.00;1.83;;;;;;;;;;6247131;28;20200;-55
2023/03/12 02:14:43;;;;;;;4.23;2.27;;;;;;;;;;6227123;28;20197;-52
2023/03/12 02:17:44;;;;;;;3.37;2.47;;;;;;;;;;6231110;28;20199;-57
2023/03/12 02:20:45;;;;;;;3.27;2.20;;;;;;;;;;6224023;28;20219;-54
2023/03/12 02:23:46;;;;;;;3.07;2.27;;;;;;;;;;6233170;28;20249;-53
2023/03/12 02:26:48;;;;;;;2.70;1.97;;;;;;;;;;6244506;28;20183;-57
2023/03/12 02:29:49;;;;;;;2.23;1.83;;;;;;;;;;6217996;28;20205;-54
2023/03/12 02:32:51;;;;;;;3.03;2.30;;;;;;;;;;6246692;28;20194;-56
2023/03/12 02:35:53;;;;;;;2.50;1.97;;;;;;;;;;6232218;28;20249;-54
2023/03/12 02:38:55;;;;;;;3.67;2.00;;;;;;;;;;6251632;28;20195;-52
2023/03/12 02:41:57;;;;;;;2.30;2.07;;;;;;;;;;6243690;28;20211;-55
2023/03/12 02:44:58;;;;;;;2.80;1.80;;;;;;;;;;6215908;28;20263;-54
2023/03/12 02:47:59;;;;;;;2.37;2.17;;;;;;;;;;6244966;28;20181;-53
2023/03/12 02:51:02;;;;;;;3.33;2.10;;;;;;;;;;6252177;28;20190;-54
2023/03/12 02:54:03;;;;;;;2.60;2.07;;;;;;;;;;6244754;28;20194;-53
2023/03/12 02:57:04;;;;;;;2.20;1.73;;;;;;;;;;6221645;28;20209;-53
2023/03/12 03:00:06;;;;;;;2.50;2.10;;;;;;;;;;6235366;28;20309;-53
2023/03/12 03:03:07;;;;;;;2.63;2.03;;;;;;;;;;6250631;28;20186;-54
2023/03/12 03:06:08;;;;;;;2.70;1.83;;;;;;;;;;6231202;28;20192;-57
2023/03/12 03:09:09;;;;;;;2.37;1.90;;;;;;;;;;6247523;28;20277;-54
2023/03/12 03:12:10;;;;;;;2.37;2.00;;;;;;;;;;6234679;28;20281;-54
2023/03/12 03:15:11;;;;;;;4.70;2.30;;;;;;;;;;6229946;28;20262;-53
2023/03/12 03:18:12;;;;;;;2.60;1.83;;;;;;;;;;6250809;28;20262;-51
2023/03/12 03:21:15;;;;;;;1.97;1.70;;;;;;;;;;6250831;28;20263;-57
2023/03/12 03:24:16;;;;;;;1.97;1.70;;;;;;;;;;6259678;28;20209;-53
2023/03/12 03:27:17;;;;;;;2.77;1.90;;;;;;;;;;6234934;28;20190;-55
2023/03/12 03:30:20;;;;;;;2.20;1.90;;;;;;;;;;6232022;28;20201;-56
2023/03/12 03:33:21;;;;;;;3.30;1.80;;;;;;;;;;6250216;28;20281;-54
2023/03/12 03:36:22;;;;;;;2.20;1.90;;;;;;;;;;6228027;28;20246;-53
2023/03/12 03:39:24;;;;;;;2.73;2.00;;;;;;;;;;6247254;28;20234;-55
2023/03/12 03:42:25;;;;;;;2.53;2.00;;;;;;;;;;6247767;28;20194;-57
2023/03/12 03:45:26;;;;;;;2.00;1.80;;;;;;;;;;6244922;28;20229;-57
2023/03/12 03:48:27;;;;;;;4.80;2.23;;;;;;;;;;6249481;28;20194;-53
2023/03/12 03:51:28;;;;;;;2.50;1.90;;;;;;;;;;6232330;28;20193;-54
2023/03/12 03:54:29;;;;;;;2.83;2.37;;;;;;;;;;6231635;28;20200;-52
2023/03/12 03:57:31;;;;;;;2.87;1.90;;;;;;;;;;6226341;28;20199;-52
2023/03/12 04:00:32;;;;;;;5.93;2.23;;;;;;;;;;6245154;28;20202;-53
2023/03/12 04:03:33;;;;;;;2.57;2.20;;;;;;;;;;6237730;28;20178;-56
2023/03/12 04:06:34;;;;;;;2.60;2.10;;;;;;;;;;6248424;28;20187;-56
2023/03/12 04:09:36;;;;;;;3.73;2.10;;;;;;;;;;6226452;28;20195;-56
2023/03/12 04:12:37;;;;;;;4.20;2.10;;;;;;;;;;6241730;28;20196;-55
2023/03/12 04:15:38;;;;;;;3.10;2.13;;;;;;;;;;6248560;28;20194;-54
2023/03/12 04:18:39;;;;;;;2.53;1.90;;;;;;;;;;6233172;28;20186;-57
2023/03/12 04:21:41;;;;;;;5.30;2.63;;;;;;;;;;6226509;28;20275;-52
2023/03/12 04:24:42;;;;;;;2.23;2.03;;;;;;;;;;6225322;28;20205;-53
2023/03/12 04:27:43;;;;;;;2.70;1.97;;;;;;;;;;6232902;28;20190;-54
2023/03/12 04:30:44;;;;;;;3.33;2.57;;;;;;;;;;6223509;28;20243;-55
2023/03/12 04:33:45;;;;;;;2.63;1.87;;;;;;;;;;6222511;28;20271;-54
2023/03/12 04:36:46;;;;;;;5.63;2.07;;;;;;;;;;6217416;28;20298;-54
2023/03/12 04:39:48;;;;;;;3.63;2.13;;;;;;;;;;6243342;28;20217;-57
2023/03/12 04:42:49;;;;;;;3.73;2.20;;;;;;;;;;6242965;28;20214;-56
2023/03/12 04:45:50;;;;;;;2.60;2.10;;;;;;;;;;6228565;28;20193;-55
2023/03/12 04:48:51;;;;;;;2.20;2.00;;;;;;;;;;6231816;28;20190;-57
2023/03/12 04:51:52;;;;;;;1.97;1.87;;;;;;;;;;6245561;28;20193;-53
2023/03/12 04:54:53;;;;;;;3.23;2.07;;;;;;;;;;6231577;28;20256;-55
2023/03/12 04:57:54;;;;;;;2.63;2.10;;;;;;;;;;6245505;28;20240;-55
2023/03/12 05:00:56;;;;;;;3.13;2.40;;;;;;;;;;6231408;28;20229;-56
2023/03/12 05:03:57;;;;;;;3.47;2.13;;;;;;;;;;6248806;28;20196;-57
2023/03/12 05:06:58;;;;;;;3.13;2.40;;;;;;;;;;6232424;28;20201;-57
2023/03/12 05:09:59;;;;;;;2.27;1.97;;;;;;;;;;6229682;28;20203;-54
2023/03/12 05:13:00;;;;;;;2.30;2.10;;;;;;;;;;6216329;28;20192;-54
2023/03/12 05:16:01;;;;;;;4.17;2.20;;;;;;;;;;6229812;28;20226;-56
2023/03/12 05:19:03;;;;;;;2.60;2.30;;;;;;;;;;6246164;28;20199;-56
2023/03/12 05:22:04;;;;;;;2.73;2.00;;;;;;;;;;6225282;28;20214;-55
2023/03/12 05:25:05;;;;;;;2.30;2.10;;;;;;;;;;6217946;28;20198;-56
2023/03/12 05:28:06;;;;;;;2.77;2.27;;;;;;;;;;6231348;28;20191;-57
2023/03/12 05:31:09;;;;;;;4.50;2.10;;;;;;;;;;6225739;28;20211;-54
2023/03/12 05:34:11;;;;;;;2.73;2.17;;;;;;;;;;6242008;28;20211;-57
2023/03/12 05:37:12;;;;;;;2.40;2.13;;;;;;;;;;6244669;28;20260;-51
2023/03/12 05:40:13;;;;;;;3.63;2.40;;;;;;;;;;6232048;28;20300;-55
2023/03/12 05:43:15;;;;;;;2.27;2.07;;;;;;;;;;6234148;28;20205;-52
2023/03/12 05:46:16;;;;;;;2.77;2.20;;;;;;;;;;6246207;28;20202;-54
2023/03/12 05:49:17;;;;;;;4.97;2.20;;;;;;;;;;6243753;28;20187;-55
2023/03/12 05:52:18;;;;;;;3.07;2.00;;;;;;;;;;6242247;28;20197;-53
2023/03/12 05:55:19;;;;;;;2.60;1.97;;;;;;;;;;6218651;28;20190;-55
2023/03/12 05:58:21;;;;;;;4.17;2.50;;;;;;;;;;6228347;28;20193;-56
2023/03/12 06:01:23;;;;;;;3.13;2.57;;;;;;;;;;6239597;28;20214;-49
2023/03/12 06:04:24;;;;;;;5.63;2.90;;;;;;;;;;6249643;28;20210;-53
2023/03/12 06:07:25;;;;;;;4.90;2.40;;;;;;;;;;6235201;28;20226;-55
2023/03/12 06:10:26;;;;;;;4.17;2.83;;;;;;;;;;6224525;28;20203;-50
2023/03/12 06:13:27;;;;;;;3.73;2.47;;;;;;;;;;6234516;28;20191;-53
2023/03/12 06:16:29;;;;;;;2.90;2.60;;;;;;;;;;6228451;28;20271;-54
2023/03/12 06:19:30;;;;;;;3.37;2.70;;;;;;;;;;6247932;28;20242;-55
2023/03/12 06:22:31;;;;;;;3.20;2.50;;;;;;;;;;6249508;28;20287;-55
2023/03/12 06:25:32;;;;;;;3.70;2.40;;;;;;;;;;6251113;28;20197;-57
2023/03/12 06:28:33;;;;;;;3.67;2.93;;;;;;;;;;6235015;28;20188;-57
2023/03/12 06:31:35;;;;;;;4.07;3.00;;;;;;;;;;6234364;28;20225;-56
2023/03/12 06:34:36;;;;;;;3.10;2.17;;;;;;;;;;6217697;28;20257;-57
2023/03/12 06:37:37;;;;;;;3.47;2.53;;;;;;;;;;6231733;28;20227;-56
2023/03/12 06:40:38;;;;;;;3.90;3.00;;;;;;;;;;6213668;28;20215;-61
2023/03/12 06:43:39;;;;;;;3.70;2.70;;;;;;;;;;6243093;28;20189;-50
2023/03/12 06:46:41;;;;;;;3.07;2.70;;;;;;;;;;6251864;28;20193;-52
2023/03/12 06:49:42;;;;;;;3.70;2.73;;;;;;;;;;6234690;28;20289;-56
2023/03/12 06:52:43;;;;;;;4.63;2.90;;;;;;;;;;6232686;28;20255;-55
2023/03/12 06:55:45;;;;;;;6.67;3.70;;;;;;;;;;6250802;28;20189;-54
2023/03/12 06:58:46;;;;;;;3.80;2.80;;;;;;;;;;6246712;28;20213;-55
2023/03/12 07:01:47;;;;;;;3.40;2.50;;;;;;;;;;6229121;28;20220;-52
2023/03/12 07:04:48;;;;;;;4.00;2.50;;;;;;;;;;6248978;28;20193;-54
2023/03/12 07:07:50;;;;;;;6.27;3.40;;;;;;;;;;6234378;28;20190;-56
2023/03/12 07:10:51;;;;;;;3.30;3.00;;;;;;;;;;6251190;28;20202;-55
2023/03/12 07:13:52;;;;;;;5.07;2.57;;;;;;;;;;6229454;28;20243;-51
2023/03/12 07:16:53;;;;;;;4.60;2.80;;;;;;;;;;6233649;28;20202;-55
2023/03/12 07:19:54;;;;;;;2.73;1.83;;;;;;;;;;6229806;28;20226;-56
2023/03/12 07:22:55;;;;;;;3.17;2.17;;;;;;;;;;6234195;28;20205;-57
2023/03/12 07:25:56;;;;;;;2.73;2.20;;;;;;;;;;6234385;28;20243;-56
2023/03/12 07:28:57;;;;;;;3.63;2.13;;;;;;;;;;6250729;28;20269;-54
2023/03/12 07:31:58;;;;;;;2.80;1.90;;;;;;;;;;6240374;28;20198;-54
2023/03/12 07:35:00;;;;;;;2.67;1.83;;;;;;;;;;6233639;28;20243;-56
2023/03/12 07:38:01;;;;;;;3.33;2.10;;;;;;;;;;6222476;28;20190;-56
2023/03/12 07:41:02;;;;;;;3.37;2.23;;;;;;;;;;6228378;28;20222;-56
2023/03/12 07:44:03;;;;;;;3.00;2.10;;;;;;;;;;6248657;28;20193;-56
2023/03/12 07:47:04;;;;;;;2.60;1.90;;;;;;;;;;6233636;28;20245;-54
2023/03/12 07:50:06;;;;;;;2.70;2.10;;;;;;;;;;6249272;28;20225;-56
2023/03/12 07:53:07;;;;;;;2.67;2.07;;;;;;;;;;6231316;28;20268;-54
2023/03/12 07:56:08;;;;;;;2.33;2.13;;;;;;;;;;6247643;28;20190;-57
2023/03/12 07:59:09;;;;;;;2.60;2.30;;;;;;;;;;6233365;28;20205;-57
2023/03/12 08:02:10;;;;;;;2.80;2.30;;;;;;;;;;6227961;28;20233;-57
2023/03/12 08:05:11;;;;;;;3.27;2.47;;;;;;;;;;6238132;28;20209;-57
2023/03/12 08:08:12;;;;;;;2.40;2.20;;;;;;;;;;6219150;28;20214;-57
2023/03/12 08:11:13;;;;;;;4.07;2.10;;;;;;;;;;6229826;28;20265;-57
2023/03/12 08:14:14;;;;;;;2.70;2.10;;;;;;;;;;6233505;28;20232;-56
2023/03/12 08:17:15;;;;;;;2.70;2.40;;;;;;;;;;6229370;28;20207;-55
2023/03/12 08:20:17;;;;;;;2.63;2.30;;;;;;;;;;6229564;28;20233;-58
2023/03/12 08:23:18;;;;;;;2.60;2.40;;;;;;;;;;6225672;28;20214;-58
2023/03/12 08:26:19;;;;;;;3.60;2.20;;;;;;;;;;6245833;28;20187;-57
2023/03/12 08:29:20;;;;;;;4.27;2.40;;;;;;;;;;6248744;28;20186;-55
2023/03/12 08:32:21;;;;;;;2.30;2.10;;;;;;;;;;6239556;28;20210;-57
2023/03/12 08:35:23;;;;;;;3.07;2.40;;;;;;;;;;6244855;28;20234;-57
2023/03/12 08:38:24;;;;;;;3.23;2.37;;;;;;;;;;6241789;28;20250;-58
2023/03/12 08:41:25;;;;;;;3.17;2.50;;;;;;;;;;6247256;28;20210;-58
2023/03/12 08:44:26;;;;;;;3.23;2.40;;;;;;;;;;6238989;28;20278;-57
2023/03/12 08:47:27;;;;;;;2.40;2.20;;;;;;;;;;6243470;28;20221;-58
2023/03/12 08:50:30;;;;;;;3.63;2.50;;;;;;;;;;6221623;28;20198;-58
2023/03/12 08:53:33;;;;;;;3.53;2.63;;;;;;;;;;6240163;28;20193;-56
2023/03/12 08:56:35;;;;;;;4.17;2.70;;;;;;;;;;6245350;28;20202;-56
2023/03/12 08:59:37;;;;;;;4.77;3.10;;;;;;;;;;6225222;28;20309;-57
2023/03/12 09:02:38;;;;;;;2.90;2.47;;;;;;;;;;6251124;28;20182;-51
2023/03/12 09:05:39;;;;;;;3.33;2.60;;;;;;;;;;6245563;28;20194;-55
2023/03/12 09:08:40;;;;;;;2.83;2.23;;;;;;;;;;6230364;28;20214;-55
2023/03/12 09:11:42;;;;;;;2.80;2.60;;;;;;;;;;6240665;28;20233;-55
2023/03/12 09:14:43;;;;;;;4.00;2.17;;;;;;;;;;6247268;28;20186;-57
2023/03/12 09:17:44;;;;;;;3.47;2.70;;;;;;;;;;6229317;28;20226;-54
2023/03/12 09:20:45;;;;;;;2.60;2.37;;;;;;;;;;6224359;28;20214;-57
2023/03/12 09:23:46;;;;;;;2.83;2.33;;;;;;;;;;6228409;28;20269;-52
2023/03/12 09:26:47;;;;;;;3.20;2.60;;;;;;;;;;6245525;28;20194;-51
2023/03/12 09:29:50;;;;;;;3.70;2.70;;;;;;;;;;6231628;28;20198;-51
2023/03/12 09:32:51;;;;;;;4.37;2.87;;;;;;;;;;6243374;28;20203;-56
2023/03/12 09:35:59;;;;;;;3.20;2.47;;;;;;;;;;6229635;28;20762;-53
2023/03/12 09:39:01;;;;;;;3.47;3.00;;;;;;;;;;6238727;28;20215;-56
2023/03/12 09:42:04;;;;;;;3.53;2.47;;;;;;;;;;6222329;28;20298;-52
2023/03/12 09:45:06;;;;;;;3.80;2.40;;;;;;;;;;6232039;28;20183;-55
2023/03/12 09:48:13;;;;;;;2.97;2.67;;;;;;;;;;6246668;28;20194;-48
2023/03/12 09:51:21;;;;;;;2.90;2.53;;;;;;;;;;6245673;28;20203;-51
2023/03/12 09:54:25;;;;;;;3.20;2.67;;;;;;;;;;6244389;28;20193;-51
2023/03/12 09:57:28;;;;;;;2.60;2.10;;;;;;;;;;6246781;28;20186;-50
2023/03/12 10:00:32;;;;;;;2.93;2.47;;;;;;;;;;6221628;28;20282;-48
2023/03/12 10:03:40;;;;;;;3.90;2.77;;;;;;;;;;6239263;28;20180;-53
2023/03/12 10:07:00;;;;;;;3.07;2.53;;;;;;;;;;6239368;28;20186;-51
2023/03/12 10:10:01;;;;;;;3.23;2.53;;;;;;;;;;6239106;28;20203;-51
2023/03/12 10:13:05;;;;;;;3.73;2.77;;;;;;;;;;6229453;28;20218;-50
2023/03/12 10:16:06;;;;;;;3.03;2.67;;;;;;;;;;6240151;28;20269;-55
2023/03/12 10:19:10;;;;;;;3.20;2.73;;;;;;;;;;6246390;28;20204;-56
2023/03/12 10:22:13;;;;;;;2.93;2.60;;;;;;;;;;6244935;28;20215;-53
2023/03/12 10:25:17;;;;;;;2.67;2.47;;;;;;;;;;6231638;28;20194;-53
2023/03/12 10:28:39;;;;;;;4.23;2.67;;;;;;;;;;6241947;28;20191;-55
2023/03/12 10:31:48;;;;;;;4.23;2.90;;;;;;;;;;6262891;28;20257;-56
2023/03/12 10:34:57;;;;;;;4.47;2.97;;;;;;;;;;6246103;28;20238;-57
2023/03/12 10:37:59;;;;;;;4.10;3.20;;;;;;;;;;6237940;28;20202;-54
2023/03/12 10:41:00;;;;;;;3.13;2.70;;;;;;;;;;6227823;28;20253;-57
2023/03/12 10:44:05;;;;;;;3.00;2.70;;;;;;;;;;6229871;28;20251;-54
2023/03/12 10:47:13;;;;;;;3.37;3.07;;;;;;;;;;6244367;28;20198;-55
2023/03/12 10:50:21;;;;;;;3.70;2.97;;;;;;;;;;6265242;28;20214;-54
2023/03/12 10:53:34;;;;;;;4.93;3.13;;;;;;;;;;6250076;28;20260;-58
2023/03/12 10:56:47;;;;;;;4.07;2.93;;;;;;;;;;6244378;28;20219;-57
2023/03/12 10:59:50;;;;;;;3.77;3.17;;;;;;;;;;6230405;28;20227;-55
2023/03/12 11:03:02;;;;;;;2.80;2.53;;;;;;;;;;6227406;28;20305;-52
2023/03/12 11:06:06;;;;;;;4.03;3.10;;;;;;;;;;6252887;28;20178;-55
2023/03/12 11:09:07;;;;;;;2.80;2.50;;;;;;;;;;6248955;28;20195;-56
2023/03/12 11:12:23;;;;;;;2.40;2.20;;;;;;;;;;6242506;28;20195;-57
2023/03/12 11:15:27;;;;;;;2.87;2.57;;;;;;;;;;6243834;28;20242;-56
2023/03/12 11:18:28;;;;;;;3.30;2.77;;;;;;;;;;6250740;28;20281;-56
2023/03/12 11:21:31;;;;;;;3.13;2.67;;;;;;;;;;6245117;28;20619;-57
2023/03/12 11:24:32;;;;;;;3.17;2.57;;;;;;;;;;6249853;28;20197;-56
2023/03/12 11:27:40;;;;;;;3.30;2.77;;;;;;;;;;6246553;28;20191;-55
2023/03/12 11:30:42;;;;;;;5.33;2.97;;;;;;;;;;6250519;28;20187;-56
2023/03/12 11:33:43;;;;;;;5.67;4.33;;;;;;;;;;6238844;28;20267;-51
2023/03/12 11:36:56;;;;;;;3.90;2.90;;;;;;;;;;6225319;28;20241;-56
2023/03/12 11:40:17;;;;;;;3.07;2.50;;;;;;;;;;6263273;28;20210;-57
2023/03/12 11:43:37;;;;;;;3.20;2.60;;;;;;;;;;6240693;28;20282;-56
2023/03/12 11:46:47;;;;;;;3.50;2.73;;;;;;;;;;6227464;28;20193;-57
2023/03/12 11:50:02;;;;;;;3.57;2.80;;;;;;;;;;6243684;28;20192;-53
2023/03/12 11:53:30;;;;;;;3.27;2.50;;;;;;;;;;6246217;28;20191;-56
2023/03/12 11:56:46;;;;;;;3.07;2.70;;;;;;;;;;6223780;28;20210;-55
2023/03/12 11:59:56;;;;;;;2.93;2.20;;;;;;;;;;6230121;28;20223;-56
2023/03/12 12:03:00;;;;;;;3.53;2.80;;;;;;;;;;6232759;28;20646;-56
2023/03/12 12:06:07;;;;;;;2.30;2.10;;;;;;;;;;6238618;28;20230;-55
2023/03/12 12:09:11;;;;;;;3.17;2.60;;;;;;;;;;6249747;28;20187;-51
2023/03/12 12:12:25;;;;;;;2.90;2.50;;;;;;;;;;6250075;28;20229;-55
2023/03/12 12:15:44;;;;;;;4.33;2.93;;;;;;;;;;6254333;28;20223;-51
2023/03/12 12:19:04;;;;;;;3.27;2.87;;;;;;;;;;6231379;28;20199;-51
2023/03/12 12:22:14;;;;;;;3.00;2.37;;;;;;;;;;6246995;28;20268;-51
2023/03/12 12:25:21;;;;;;;2.90;2.43;;;;;;;;;;6244969;28;20199;-56
2023/03/12 12:28:33;;;;;;;2.97;2.67;;;;;;;;;;6244161;28;20175;-52
2023/03/12 12:31:46;;;;;;;4.13;2.73;;;;;;;;;;6247910;28;20192;-53
2023/03/12 12:34:54;;;;;;;3.37;2.77;;;;;;;;;;6247549;28;20239;-54
2023/03/12 12:37:55;;;;;;;3.60;2.27;;;;;;;;;;6243277;28;20204;-53
2023/03/12 12:41:11;;;;;;;3.10;2.30;;;;;;;;;;6227359;28;20230;-48
2023/03/12 12:44:14;;;;;;;2.83;2.50;;;;;;;;;;6231721;28;20225;-51
2023/03/12 12:47:18;;;;;;;2.43;2.23;;;;;;;;;;6248087;28;20198;-51
2023/03/12 12:50:21;;;;;;;3.10;2.23;;;;;;;;;;6246171;28;20244;-54
2023/03/12 12:53:27;;;;;;;2.63;2.00;;;;;;;;;;6246724;28;20190;-54
2023/03/12 12:56:47;;;;;;;2.30;2.10;;;;;;;;;;6239367;28;20234;-51
2023/03/12 12:59:49;;;;;;;2.33;1.80;;;;;;;;;;6239369;28;20280;-48
2023/03/12 13:02:51;;;;;;;2.93;2.20;;;;;;;;;;6248517;28;20221;-49
2023/03/12 13:05:52;;;;;;;4.10;2.30;;;;;;;;;;6241442;28;20257;-52
2023/03/12 13:08:56;;;;;;;3.23;2.30;;;;;;;;;;6246362;28;20192;-53
2023/03/12 13:11:58;;;;;;;2.90;1.97;;;;;;;;;;6239790;28;20191;-53
2023/03/12 13:14:59;;;;;;;2.87;2.00;;;;;;;;;;6230263;28;20247;-53
2023/03/12 13:18:03;;;;;;;2.70;1.67;;;;;;;;;;6230941;28;20254;-51
2023/03/12 13:21:24;;;;;;;1.83;1.50;;;;;;;;;;6241811;28;20226;-53
2023/03/12 13:24:25;;;;;;;2.10;1.73;;;;;;;;;;6238373;28;20204;-52
2023/03/12 13:27:36;;;;;;;2.33;1.73;;;;;;;;;;6247924;28;20195;-52
2023/03/12 13:30:37;;;;;;;2.13;1.60;;;;;;;;;;6245584;28;20324;-53
2023/03/12 13:33:44;;;;;;;2.50;1.87;;;;;;;;;;6247758;28;20240;-50
2023/03/12 13:36:46;;;;;;;2.40;1.50;;;;;;;;;;6247667;28;20239;-50
2023/03/12 13:39:47;;;;;;;2.70;1.90;;;;;;;;;;6247185;28;20306;-48
2023/03/12 13:43:00;;;;;;;2.13;1.93;;;;;;;;;;6240572;28;20194;-50
2023/03/12 13:46:21;;;;;;;3.10;1.90;;;;;;;;;;6244584;28;20198;-53
2023/03/12 13:49:23;;;;;;;2.03;1.60;;;;;;;;;;6245694;28;20195;-52
2023/03/12 13:52:29;;;;;;;2.57;2.00;;;;;;;;;;6227289;28;20213;-52
2023/03/12 13:55:34;;;;;;;2.53;1.93;;;;;;;;;;6238757;28;20265;-51
2023/03/12 13:58:56;;;;;;;2.07;1.73;;;;;;;;;;6242559;28;20190;-51
2023/03/12 14:01:59;;;;;;;3.27;2.00;;;;;;;;;;6261968;28;20214;-52
2023/03/12 14:05:05;;;;;;;2.90;1.67;;;;;;;;;;6227928;28;20200;-53
2023/03/12 14:08:08;;;;;;;2.70;1.73;;;;;;;;;;6245390;28;20191;-56
2023/03/12 14:11:28;;;;;;;2.17;1.97;;;;;;;;;;6242458;28;20202;-55
2023/03/12 14:14:33;;;;;;;2.13;1.90;;;;;;;;;;6246308;28;20199;-56
2023/03/12 14:17:35;;;;;;;1.90;1.60;;;;;;;;;;6242645;28;20503;-50
2023/03/12 14:20:37;;;;;;;2.63;1.97;;;;;;;;;;6248085;28;20218;-51
2023/03/12 14:23:40;;;;;;;2.47;1.70;;;;;;;;;;6243266;28;20182;-54
2023/03/12 14:26:41;;;;;;;2.00;1.80;;;;;;;;;;6237924;28;20191;-51
2023/03/12 14:29:52;;;;;;;1.90;1.80;;;;;;;;;;6230930;28;20197;-51
2023/03/12 14:32:56;;;;;;;2.87;2.27;;;;;;;;;;6246837;28;20297;-50
2023/03/12 14:36:01;;;;;;;2.10;1.90;;;;;;;;;;6243712;28;20318;-52
2023/03/12 14:39:12;;;;;;;1.93;1.63;;;;;;;;;;6248969;28;20276;-53
2023/03/12 14:42:25;;;;;;;3.70;2.30;;;;;;;;;;6244909;28;20215;-55
2023/03/12 14:45:27;;;;;;;2.80;2.20;;;;;;;;;;6249044;28;20225;-51
2023/03/12 14:48:35;;;;;;;2.53;2.00;;;;;;;;;;6250433;28;20237;-50
2023/03/12 14:51:36;;;;;;;2.00;1.90;;;;;;;;;;6245074;28;20187;-50
2023/03/12 14:54:38;;;;;;;2.47;1.93;;;;;;;;;;6219653;28;20199;-52
2023/03/12 14:57:39;;;;;;;1.70;1.60;;;;;;;;;;6232014;28;20197;-50
2023/03/12 15:00:42;;;;;;;1.80;1.70;;;;;;;;;;6244814;28;20215;-52
2023/03/12 15:03:47;;;;;;;2.53;1.93;;;;;;;;;;6251087;28;20190;-50
2023/03/12 15:06:50;;;;;;;2.20;1.87;;;;;;;;;;6249984;28;20191;-49
2023/03/12 15:09:52;;;;;;;2.17;1.97;;;;;;;;;;6233667;28;20199;-51
2023/03/12 15:12:55;;;;;;;3.20;2.70;;;;;;;;;;6229836;28;20198;-50
2023/03/12 15:15:56;;;;;;;2.10;1.90;;;;;;;;;;6249043;28;20201;-52
2023/03/12 15:18:57;;;;;;;2.97;2.23;;;;;;;;;;6210970;28;20187;-48
2023/03/12 15:21:59;;;;;;;2.70;2.20;;;;;;;;;;6216869;28;20310;-50
2023/03/12 15:25:15;;;;;;;2.80;2.43;;;;;;;;;;6225483;28;20194;-50
2023/03/12 15:28:17;;;;;;;2.57;2.37;;;;;;;;;;6229779;28;20223;-50
2023/03/12 15:31:21;;;;;;;2.70;2.10;;;;;;;;;;6249383;28;20258;-50
2023/03/12 15:34:48;;;;;;;2.53;2.30;;;;;;;;;;6237873;28;20290;-52
2023/03/12 15:37:52;;;;;;;2.47;2.27;;;;;;;;;;6229268;28;20220;-50
2023/03/12 15:40:55;;;;;;;2.15;1.95;;;;;;;;;;6263333;28;20834;-50
2023/03/12 15:43:57;;;;;;;2.30;2.10;;;;;;;;;;6240327;28;20188;-53
2023/03/12 15:47:10;;;;;;;2.97;2.20;;;;;;;;;;6229744;28;20194;-52
2023/03/12 15:50:17;;;;;;;2.43;2.23;;;;;;;;;;6244047;28;20242;-53
2023/03/12 15:53:19;;;;;;;2.47;2.23;;;;;;;;;;6242969;28;20193;-54
2023/03/12 15:56:23;;;;;;;3.07;2.00;;;;;;;;;;6245057;28;20186;-53
2023/03/12 15:59:25;;;;;;;3.57;2.07;;;;;;;;;;6242690;28;20194;-49
2023/03/12 16:02:37;;;;;;;3.17;2.07;;;;;;;;;;6249038;28;20229;-53
2023/03/12 16:05:39;;;;;;;2.50;2.30;;;;;;;;;;6249026;28;20195;-52
2023/03/12 16:08:44;;;;;;;2.93;1.97;;;;;;;;;;6246549;28;20202;-51
2023/03/12 16:11:45;;;;;;;2.50;2.30;;;;;;;;;;6240827;28;20233;-50
2023/03/12 16:14:48;;;;;;;3.23;2.93;;;;;;;;;;6248675;28;20194;-51
2023/03/12 16:17:49;;;;;;;2.40;2.00;;;;;;;;;;6224811;28;20332;-54
2023/03/12 16:20:51;;;;;;;3.17;2.20;;;;;;;;;;6211615;28;20214;-54
2023/03/12 16:23:53;;;;;;;2.60;2.10;;;;;;;;;;6241694;28;20190;-55
2023/03/12 16:26:57;;;;;;;4.47;2.00;;;;;;;;;;6234033;28;20186;-54
2023/03/12 16:30:01;;;;;;;1.93;1.70;;;;;;;;;;6231105;28;20202;-54
2023/03/12 16:33:03;;;;;;;2.60;2.40;;;;;;;;;;6238492;28;20249;-55
2023/03/12 16:36:11;;;;;;;2.53;2.13;;;;;;;;;;6247636;28;20318;-56
2023/03/12 16:39:12;;;;;;;2.10;1.70;;;;;;;;;;6231651;28;20231;-52
2023/03/12 16:42:15;;;;;;;3.17;2.40;;;;;;;;;;6247215;28;20217;-49
2023/03/12 16:45:17;;;;;;;4.00;2.27;;;;;;;;;;6243946;28;20210;-52
2023/03/12 16:48:20;;;;;;;2.73;2.43;;;;;;;;;;6244161;28;20193;-50
2023/03/12 16:51:22;;;;;;;2.50;2.30;;;;;;;;;;6230362;28;20188;-53
2023/03/12 16:54:23;;;;;;;3.67;3.20;;;;;;;;;;6224405;28;20183;-51
2023/03/12 16:57:27;;;;;;;2.47;2.27;;;;;;;;;;6229770;28;20312;-51
2023/03/12 17:00:29;;;;;;;2.93;2.57;;;;;;;;;;6224349;28;20215;-49
2023/03/12 17:03:35;;;;;;;2.97;2.60;;;;;;;;;;6228630;28;20271;-49
2023/03/12 17:06:38;;;;;;;3.07;2.33;;;;;;;;;;6245926;28;20278;-52
2023/03/12 17:09:40;;;;;;;3.43;2.73;;;;;;;;;;6244346;28;20193;-57
2023/03/12 17:12:41;;;;;;;3.40;2.63;;;;;;;;;;6241077;28;20183;-49
2023/03/12 17:15:42;;;;;;;3.33;2.63;;;;;;;;;;6236824;28;20175;-52
2023/03/12 17:18:44;;;;;;;3.07;2.63;;;;;;;;;;6207791;28;20197;-52
2023/03/12 17:21:45;;;;;;;3.77;2.50;;;;;;;;;;6228706;28;20214;-52
2023/03/12 17:24:47;;;;;;;3.00;2.53;;;;;;;;;;6231042;28;20201;-51
2023/03/12 17:27:49;;;;;;;3.73;2.80;;;;;;;;;;6225646;28;20187;-55
2023/03/12 17:30:50;;;;;;;3.33;2.80;;;;;;;;;;6230758;28;20197;-57
2023/03/12 17:33:51;;;;;;;2.47;2.27;;;;;;;;;;6227595;28;20186;-55
2023/03/12 17:36:54;;;;;;;3.93;2.80;;;;;;;;;;6240877;28;20268;-51
2023/03/12 17:39:55;;;;;;;4.17;2.83;;;;;;;;;;6231716;28;20190;-53
2023/03/12 17:42:56;;;;;;;2.63;2.43;;;;;;;;;;6246150;28;20209;-58
2023/03/12 17:46:03;;;;;;;4.27;2.80;;;;;;;;;;6244460;28;20194;-53
2023/03/12 17:49:04;;;;;;;3.20;2.90;;;;;;;;;;6230911;28;20192;-57
2023/03/12 17:52:05;;;;;;;3.33;2.73;;;;;;;;;;6250100;28;20217;-57
2023/03/12 17:55:07;;;;;;;3.20;2.77;;;;;;;;;;6233087;28;20209;-58
2023/03/12 17:58:08;;;;;;;3.80;2.80;;;;;;;;;;6252020;28;20193;-58
2023/03/12 18:01:10;;;;;;;2.87;2.63;;;;;;;;;;6230464;28;20214;-58
2023/03/12 18:04:11;;;;;;;4.13;3.03;;;;;;;;;;6235049;28;20187;-59
2023/03/12 18:07:13;;;;;;;2.97;2.63;;;;;;;;;;6238936;28;20191;-59
2023/03/12 18:10:14;;;;;;;6.53;3.20;;;;;;;;;;6243151;28;20226;-55
2023/03/12 18:13:18;;;;;;;3.97;3.20;;;;;;;;;;6240002;28;20291;-58
2023/03/12 18:16:19;;;;;;;3.70;3.10;;;;;;;;;;6230294;28;20199;-58
2023/03/12 18:19:22;;;;;;;3.53;2.93;;;;;;;;;;6232378;28;20199;-58